Archival Weather

Fayette Rgnl Air Cntr Arp

Fayette Rgnl Air Cntr Arp, Texas (K3T5)

Report from: Thursday, September 22, 2022 4:15 AM CDT
Current time: Friday, February 3, 2023 10:53 PM CST

Current weather
Weather history
Weather forecast

Temperature21.5°C (70.7°F)
Dew point21.0°C (69.8°F)
Winds Calm
Visibility10 mi. (16.1 km)
Clouds Sky clear
Altimeter29.98 in.Hg (1015 mB)
Relative humidity97 %
Density altitude1,027 ft. (313 m)
Remarks Fully automated report
Automated weather observing station with precipitation discriminator
Flight conditions Visual Meteorological Conditions
Raw dataK3T5 220915Z AUTO 00000KT 10SM CLR 22/21 A2998 RMK AO2 T02150210
An unhandled exception has occurred. See browser dev tools for details. Reload 🗙